< Typhoon 199920 1999 Season Typhoon 199922 >
Typhoon 199921 (EVE)
General InformationTrack Information on Google MapsDetailed Wind InformationList of All Images || Disaster Info.ResourceGoogle EarthGE AnimationAtom FeedGeoJSON
Detalied Best Track (Time Zone = UTC)
Year Month Day Hour Lat. Long. Pressure (hPa) Wind (kt) Class Image Chart
1999 10 15 06 11.7 126.8 1004 0 2 Image Chart
1999 10 15 12 12.5 125.5 1006 0 2 Image Chart
1999 10 15 18 13.5 124.4 1006 0 2 Image Chart
1999 10 16 00 14.0 123.3 1006 0 2 Image Chart
1999 10 16 06 14.2 122.5 1004 0 2 Image Chart
1999 10 16 12 14.5 121.7 1004 0 2 Image Chart
1999 10 16 18 14.8 120.9 1004 0 2 Image Chart
1999 10 17 00 15.2 120.3 1002 0 2 Image Chart
1999 10 17 06 16.0 119.2 998 35 3 Image Chart
1999 10 17 12 16.6 118.3 998 35 3 Image Chart
1999 10 17 18 17.1 117.4 996 35 3 Image Chart
1999 10 18 00 17.4 116.4 994 40 3 Image Chart
1999 10 18 06 17.3 115.0 992 45 3 Image Chart
1999 10 18 12 16.7 113.5 992 45 3 Image Chart
1999 10 18 18 16.1 112.0 992 45 3 Image Chart
1999 10 19 00 15.4 110.1 990 45 3 Image Chart
1999 10 19 06 15.0 109.3 992 40 3 Image Chart
1999 10 19 12 16.5 108.8 996 35 3 Image Chart
1999 10 19 18 17.0 107.8 996 35 3 Image Chart
1999 10 20 00 17.3 106.7 998 35 3 Image Chart
1999 10 20 06 18.0 105.5 1006 0 2 Image Chart
Japan Meteorological Agency Best Track Data | Correction Date : 2005-03-01
< Typhoon 199920 1999 Season Typhoon 199922 >

Help